createdAt,value
2022-10-16T00:01:48.344Z,5.75
2022-10-16T00:04:16.753Z,7.00
2022-10-16T00:06:45.140Z,9.25
2022-10-16T00:09:13.821Z,7.00
2022-10-16T00:11:42.959Z,6.25
2022-10-16T00:14:16.688Z,7.00
2022-10-16T00:16:45.291Z,7.50
2022-10-16T00:19:16.747Z,6.75
2022-10-16T00:21:45.158Z,7.00
2022-10-16T00:24:13.532Z,10.50
2022-10-16T00:26:42.603Z,8.25
2022-10-16T00:29:11.321Z,8.50
2022-10-16T00:31:39.944Z,7.75
2022-10-16T00:34:08.346Z,10.00
2022-10-16T00:36:36.810Z,9.50
2022-10-16T00:39:05.946Z,10.00
2022-10-16T00:41:35.847Z,9.25
2022-10-16T00:44:25.751Z,9.75
2022-10-16T00:46:54.394Z,9.50
2022-10-16T00:49:23.529Z,7.25
2022-10-16T00:51:56.390Z,9.25
2022-10-16T00:54:33.620Z,9.00
2022-10-16T00:57:06.439Z,9.75
2022-10-16T00:59:38.432Z,9.75
2022-10-16T01:02:09.187Z,8.00
2022-10-16T01:04:41.669Z,8.75
2022-10-16T01:07:40.387Z,9.00
2022-10-16T01:10:17.817Z,11.00
2022-10-16T01:13:09.387Z,10.00
2022-10-16T01:15:53.903Z,9.25
2022-10-16T01:18:43.768Z,9.75
2022-10-16T01:21:24.454Z,9.00
2022-10-16T01:24:05.883Z,9.00
2022-10-16T01:26:45.949Z,9.00
2022-10-16T01:29:41.509Z,9.00
2022-10-16T01:32:34.855Z,9.00
2022-10-16T01:35:20.226Z,10.00
2022-10-16T01:38:02.533Z,10.00
2022-10-16T01:40:32.816Z,9.75
2022-10-16T01:43:09.246Z,10.00
2022-10-16T01:45:39.210Z,9.00
2022-10-16T01:48:11.530Z,8.00
2022-10-16T01:50:43.883Z,8.50
2022-10-16T01:53:15.325Z,9.75
2022-10-16T01:55:47.948Z,8.00
2022-10-16T01:58:17.441Z,9.00
2022-10-16T02:00:49.307Z,7.50
2022-10-16T02:03:21.654Z,8.75
2022-10-16T02:05:53.577Z,8.75
2022-10-16T02:08:24.989Z,10.00
2022-10-16T02:10:53.517Z,8.25
2022-10-16T02:13:32.153Z,9.25
2022-10-16T02:16:00.686Z,8.75
2022-10-16T02:18:32.784Z,8.75
2022-10-16T02:21:18.832Z,10.00
2022-10-16T02:24:29.265Z,9.25
2022-10-16T02:27:10.373Z,10.50
2022-10-16T02:29:46.753Z,9.00
2022-10-16T02:32:22.033Z,9.50
2022-10-16T02:34:52.995Z,9.00
2022-10-16T02:37:21.754Z,9.00
2022-10-16T02:39:50.224Z,8.00
2022-10-16T02:42:20.707Z,10.00
2022-10-16T02:44:49.121Z,10.00
2022-10-16T02:47:17.576Z,8.00
2022-10-16T02:49:46.028Z,9.00
2022-10-16T02:52:14.433Z,7.00
2022-10-16T02:54:42.767Z,8.00
2022-10-16T02:57:11.292Z,8.75
2022-10-16T02:59:39.844Z,6.75
2022-10-16T03:02:08.327Z,6.00
2022-10-16T03:04:36.732Z,9.00
2022-10-16T03:07:05.486Z,8.00
2022-10-16T03:09:33.980Z,8.75
2022-10-16T03:12:02.405Z,6.25
2022-10-16T03:14:30.823Z,9.50
2022-10-16T03:16:59.311Z,8.00
2022-10-16T03:19:27.784Z,7.00
2022-10-16T03:21:56.159Z,7.50
2022-10-16T03:24:24.605Z,8.00
2022-10-16T03:26:52.928Z,7.00
2022-10-16T03:29:21.372Z,7.75
2022-10-16T03:31:51.454Z,7.50
2022-10-16T03:34:19.869Z,7.00
2022-10-16T03:36:48.256Z,8.00
2022-10-16T03:39:16.626Z,7.00
2022-10-16T03:41:45.000Z,9.75
2022-10-16T03:44:13.385Z,8.25
2022-10-16T03:46:41.837Z,6.75
2022-10-16T03:49:10.391Z,7.50
2022-10-16T03:51:39.347Z,7.75
2022-10-16T03:54:07.730Z,7.00
2022-10-16T03:56:36.473Z,8.00
2022-10-16T03:59:04.831Z,9.00
2022-10-16T04:01:33.160Z,8.00
2022-10-16T04:04:02.615Z,8.00
2022-10-16T04:06:30.999Z,8.75
2022-10-16T04:08:59.482Z,10.75
2022-10-16T04:11:27.906Z,7.00
2022-10-16T04:13:56.381Z,8.00
2022-10-16T04:16:24.754Z,9.00
2022-10-16T04:18:53.151Z,9.25
2022-10-16T04:21:21.482Z,8.50
2022-10-16T04:23:49.908Z,7.75
2022-10-16T04:26:18.260Z,10.00
2022-10-16T04:28:46.781Z,9.00
2022-10-16T04:31:15.178Z,8.00
2022-10-16T04:33:45.873Z,9.00
2022-10-16T04:36:14.446Z,9.75
2022-10-16T04:38:42.880Z,9.75
2022-10-16T04:41:11.234Z,9.00
2022-10-16T04:43:39.637Z,7.25
2022-10-16T04:46:08.200Z,8.00
2022-10-16T04:48:36.657Z,8.75
2022-10-16T04:51:05.219Z,7.25
2022-10-16T04:53:33.933Z,6.00
2022-10-16T04:56:02.367Z,8.00
2022-10-16T04:58:30.750Z,7.00
2022-10-16T05:00:59.147Z,7.00
2022-10-16T05:03:27.593Z,6.25
2022-10-16T05:05:56.032Z,7.00
2022-10-16T05:08:25.117Z,6.25
2022-10-16T05:10:53.771Z,6.00
2022-10-16T05:13:22.185Z,7.00
2022-10-16T05:15:50.668Z,6.25
2022-10-16T05:18:19.421Z,8.00
2022-10-16T05:20:47.957Z,7.75
2022-10-16T05:23:16.376Z,9.00
2022-10-16T05:25:44.806Z,7.75
2022-10-16T05:28:13.167Z,7.75
2022-10-16T05:30:41.704Z,7.00
2022-10-16T05:33:10.046Z,8.25
2022-10-16T05:35:38.352Z,8.25
2022-10-16T05:38:06.788Z,8.75
2022-10-16T05:40:35.258Z,7.50
2022-10-16T05:43:03.721Z,9.50
2022-10-16T05:45:32.182Z,8.00
2022-10-16T05:48:01.430Z,7.50
2022-10-16T05:50:30.282Z,8.00
2022-10-16T05:52:59.359Z,7.00
2022-10-16T05:55:27.743Z,7.25
2022-10-16T05:57:59.198Z,8.25
2022-10-16T06:00:27.647Z,9.00
2022-10-16T06:02:56.481Z,9.25
2022-10-16T06:05:24.844Z,7.00
2022-10-16T06:07:53.250Z,7.50
2022-10-16T06:10:21.658Z,6.50
2022-10-16T06:12:50.066Z,11.25
2022-10-16T06:15:18.401Z,11.25
2022-10-16T06:17:46.785Z,9.00
2022-10-16T06:20:15.220Z,11.00
2022-10-16T06:22:43.582Z,11.00
2022-10-16T06:25:12.298Z,8.50
2022-10-16T06:27:43.588Z,7.00
2022-10-16T06:30:12.426Z,7.50
2022-10-16T06:32:40.876Z,9.00
2022-10-16T06:35:09.631Z,9.00
2022-10-16T06:37:38.035Z,9.00
2022-10-16T06:40:06.908Z,9.00
2022-10-16T06:42:35.345Z,7.00
2022-10-16T06:45:03.763Z,8.00
2022-10-16T06:47:34.179Z,7.00
2022-10-16T06:50:02.563Z,6.50
2022-10-16T06:52:31.125Z,8.25
2022-10-16T06:54:59.500Z,8.00
2022-10-16T06:57:28.345Z,7.00
2022-10-16T06:59:56.798Z,7.00
2022-10-16T07:02:25.593Z,8.00
2022-10-16T07:04:54.248Z,7.75
2022-10-16T07:07:22.700Z,8.00
2022-10-16T07:09:51.016Z,6.75
2022-10-16T07:12:19.718Z,7.25
2022-10-16T07:14:48.164Z,5.50
2022-10-16T07:17:16.669Z,8.25
2022-10-16T07:19:45.052Z,7.25
2022-10-16T07:22:13.684Z,8.00
2022-10-16T07:24:42.049Z,7.25
2022-10-16T07:27:10.381Z,7.00
2022-10-16T07:29:38.958Z,9.00
2022-10-16T07:32:07.298Z,8.75
2022-10-16T07:34:35.735Z,6.50
2022-10-16T07:37:04.139Z,10.00
2022-10-16T07:39:32.532Z,8.75
2022-10-16T07:42:00.895Z,7.75
2022-10-16T07:44:29.279Z,7.00
2022-10-16T07:46:57.654Z,8.75
2022-10-16T07:49:25.957Z,8.50
2022-10-16T07:51:54.283Z,9.50
2022-10-16T07:54:22.680Z,5.75
2022-10-16T07:56:51.130Z,7.25
2022-10-16T07:59:19.513Z,7.00
2022-10-16T08:01:47.946Z,8.50
2022-10-16T08:04:16.331Z,7.75
2022-10-16T08:06:44.995Z,8.00
2022-10-16T08:09:13.421Z,8.00
2022-10-16T08:11:41.823Z,8.00
2022-10-16T08:14:10.127Z,7.00
2022-10-16T08:16:38.513Z,9.00
2022-10-16T08:19:07.015Z,9.50
2022-10-16T08:21:35.448Z,8.00
2022-10-16T08:24:03.815Z,7.00
2022-10-16T08:26:32.208Z,7.00
2022-10-16T08:29:00.760Z,8.75
2022-10-16T08:31:29.295Z,7.50
2022-10-16T08:33:57.701Z,8.75
2022-10-16T08:36:26.081Z,10.00
2022-10-16T08:38:56.176Z,8.75
2022-10-16T08:41:37.933Z,7.50
2022-10-16T08:44:09.375Z,7.00
2022-10-16T08:46:46.868Z,9.00
2022-10-16T08:49:18.418Z,7.50
2022-10-16T08:51:48.533Z,9.00
2022-10-16T08:54:42.553Z,7.00
2022-10-16T08:57:24.309Z,8.00
2022-10-16T08:59:54.173Z,7.00
2022-10-16T09:02:49.982Z,9.00
2022-10-16T09:05:24.522Z,8.00
2022-10-16T09:08:13.387Z,7.75
2022-10-16T09:11:11.525Z,8.00
2022-10-16T09:14:18.229Z,6.75
2022-10-16T09:16:56.193Z,6.75
2022-10-16T09:19:42.874Z,8.00
2022-10-16T09:22:19.233Z,8.00
2022-10-16T09:24:50.497Z,9.00
2022-10-16T09:27:18.959Z,9.25
2022-10-16T09:29:47.306Z,7.25
2022-10-16T09:32:21.453Z,9.00
2022-10-16T09:34:52.919Z,7.75
2022-10-16T09:37:23.951Z,6.00
2022-10-16T09:39:57.360Z,9.00
2022-10-16T09:42:33.685Z,7.00
2022-10-16T09:45:02.117Z,7.00
2022-10-16T09:47:32.849Z,7.25
2022-10-16T09:50:21.671Z,7.50
2022-10-16T09:52:50.186Z,8.25
2022-10-16T09:55:20.418Z,8.00
2022-10-16T09:57:52.951Z,7.75
2022-10-16T10:00:22.234Z,7.00
2022-10-16T10:02:52.040Z,7.00
2022-10-16T10:05:30.282Z,7.50
2022-10-16T10:08:07.995Z,6.25
2022-10-16T10:10:45.333Z,7.50
2022-10-16T10:13:25.104Z,7.00
2022-10-16T10:15:53.826Z,7.00
2022-10-16T10:18:25.958Z,7.00
2022-10-16T10:23:38.128Z,6.00
2022-10-16T10:26:26.542Z,7.25
2022-10-16T10:29:17.574Z,7.50
2022-10-16T10:31:54.430Z,7.00
2022-10-16T10:34:44.408Z,8.00
2022-10-16T10:37:15.793Z,9.00
2022-10-16T10:39:58.326Z,7.25
2022-10-16T10:43:14.026Z,6.75
2022-10-16T10:45:49.406Z,8.00
2022-10-16T10:48:38.287Z,7.00
2022-10-16T10:51:30.564Z,5.00
2022-10-16T10:54:13.668Z,7.75
2022-10-16T10:56:47.948Z,7.50
2022-10-16T10:59:32.805Z,7.00
2022-10-16T11:02:44.487Z,6.25
2022-10-16T11:05:42.425Z,7.75
2022-10-16T11:08:18.905Z,6.00
2022-10-16T11:11:01.067Z,9.00
2022-10-16T11:14:13.479Z,7.25
2022-10-16T11:16:56.660Z,6.50
2022-10-16T11:19:47.182Z,7.00
2022-10-16T11:22:39.814Z,7.75
2022-10-16T11:25:34.963Z,7.00
2022-10-16T11:28:26.518Z,6.50
2022-10-16T11:31:19.808Z,8.50
2022-10-16T11:33:52.938Z,7.50
2022-10-16T11:36:44.504Z,7.50
2022-10-16T11:39:32.006Z,6.50
2022-10-16T11:42:29.555Z,7.25
2022-10-16T11:45:11.013Z,7.50
2022-10-16T11:48:00.720Z,8.00
2022-10-16T11:50:52.276Z,7.00
2022-10-16T11:53:47.619Z,7.00
2022-10-16T11:56:21.479Z,7.75
2022-10-16T11:59:06.282Z,7.00
2022-10-16T12:01:45.735Z,7.75
2022-10-16T12:04:35.396Z,11.00
2022-10-16T12:07:14.944Z,12.75
2022-10-16T12:09:44.778Z,9.25
2022-10-16T12:12:30.372Z,11.00
2022-10-16T12:15:40.900Z,10.75
2022-10-16T12:18:27.714Z,8.50
2022-10-16T12:21:09.876Z,10.75
2022-10-16T12:23:58.650Z,11.25
2022-10-16T12:26:33.401Z,11.00
2022-10-16T12:29:30.790Z,11.25
2022-10-16T12:31:59.220Z,10.50
2022-10-16T12:34:39.352Z,9.75
2022-10-16T12:37:34.427Z,9.25
2022-10-16T12:40:18.982Z,12.00
2022-10-16T12:42:47.411Z,12.25
2022-10-16T12:45:26.220Z,14.00
2022-10-16T12:47:57.133Z,12.00
2022-10-16T12:50:37.441Z,12.50
2022-10-16T12:53:20.250Z,12.50
2022-10-16T12:55:58.719Z,13.00
2022-10-16T12:59:04.124Z,11.25
2022-10-16T13:01:50.456Z,12.00
2022-10-16T13:04:49.441Z,10.75
2022-10-16T13:07:36.458Z,8.50
2022-10-16T13:10:26.031Z,9.75
2022-10-16T13:13:16.784Z,9.50
2022-10-16T13:16:29.315Z,8.00
2022-10-16T13:19:35.880Z,11.00
2022-10-16T13:22:19.338Z,9.00
2022-10-16T13:25:22.292Z,8.00
2022-10-16T13:28:08.818Z,10.75
2022-10-16T13:30:54.368Z,10.25
2022-10-16T13:33:39.518Z,10.75
2022-10-16T13:36:08.863Z,9.00
2022-10-16T13:38:38.516Z,8.00
2022-10-16T13:41:15.746Z,11.75
2022-10-16T13:43:53.369Z,10.00
2022-10-16T13:46:23.949Z,9.25
2022-10-16T13:49:02.596Z,8.50
2022-10-16T13:51:32.957Z,6.50
2022-10-16T13:54:01.882Z,9.00
2022-10-16T13:56:32.875Z,11.25
2022-10-16T13:59:02.988Z,9.75
2022-10-16T14:01:37.655Z,8.75
2022-10-16T14:04:13.428Z,8.75
2022-10-16T14:06:48.113Z,10.00
2022-10-16T14:09:31.914Z,8.50
2022-10-16T14:12:13.635Z,9.00
2022-10-16T14:14:48.246Z,10.00
2022-10-16T14:17:30.112Z,8.50
2022-10-16T14:20:02.810Z,8.50
2022-10-16T14:22:39.582Z,5.75
2022-10-16T14:25:29.455Z,8.75
2022-10-16T14:28:21.812Z,9.00
2022-10-16T14:30:58.946Z,7.25
2022-10-16T14:33:36.735Z,6.00
2022-10-16T14:36:14.200Z,8.50
2022-10-16T14:38:50.197Z,8.25
2022-10-16T14:41:25.168Z,12.00
2022-10-16T14:43:57.397Z,11.25
2022-10-16T14:46:35.497Z,12.00
2022-10-16T14:49:19.862Z,11.00
2022-10-16T14:51:49.027Z,10.50
2022-10-16T14:54:19.389Z,10.50
2022-10-16T14:56:57.859Z,11.75
2022-10-16T14:59:40.524Z,11.00
2022-10-16T15:02:37.255Z,12.25
2022-10-16T15:05:19.362Z,11.50
2022-10-16T15:07:48.976Z,9.50
2022-10-16T15:10:20.098Z,9.50
2022-10-16T15:12:48.670Z,10.25
2022-10-16T15:15:26.401Z,11.25
2022-10-16T15:17:58.343Z,10.75
2022-10-16T15:20:27.636Z,12.00
2022-10-16T15:22:56.140Z,10.00
2022-10-16T15:25:35.190Z,11.00
2022-10-16T15:28:05.812Z,9.25
2022-10-16T15:30:34.929Z,9.50
2022-10-16T15:33:03.703Z,12.50
2022-10-16T15:35:32.682Z,10.00
2022-10-16T15:38:01.127Z,14.00
2022-10-16T15:40:29.581Z,11.50
2022-10-16T15:42:57.936Z,12.50
2022-10-16T15:45:26.308Z,12.00
2022-10-16T15:47:54.604Z,9.00
2022-10-16T15:50:22.956Z,12.00
2022-10-16T15:52:52.999Z,9.75
2022-10-16T15:55:21.405Z,9.50
2022-10-16T15:57:49.756Z,10.25
2022-10-16T16:00:20.281Z,7.00
2022-10-16T16:02:53.951Z,10.25
2022-10-16T16:05:24.007Z,9.25
2022-10-16T16:07:52.984Z,9.50
2022-10-16T16:10:23.032Z,11.25
2022-10-16T16:12:54.004Z,10.00
2022-10-16T16:15:24.020Z,9.00
2022-10-16T16:17:52.373Z,10.25
2022-10-16T16:20:20.734Z,9.75
2022-10-16T16:22:49.049Z,9.75
2022-10-16T16:25:17.606Z,7.75
2022-10-16T16:27:46.366Z,9.00
2022-10-16T16:30:18.376Z,8.25
2022-10-16T16:32:48.562Z,8.25
2022-10-16T16:35:16.967Z,9.00
2022-10-16T16:37:45.320Z,8.75
2022-10-16T16:40:13.794Z,8.50
2022-10-16T16:42:42.199Z,8.00
2022-10-16T16:45:10.933Z,9.25
2022-10-16T16:47:40.415Z,8.50
2022-10-16T16:50:09.080Z,10.00
2022-10-16T16:52:37.653Z,10.00
2022-10-16T16:55:06.258Z,8.50
2022-10-16T16:57:34.643Z,9.00
2022-10-16T17:00:03.026Z,8.25
2022-10-16T17:02:31.422Z,9.25
2022-10-16T17:04:59.903Z,8.50
2022-10-16T17:07:29.300Z,8.50
2022-10-16T17:09:57.950Z,8.00
2022-10-16T17:12:26.275Z,9.00
2022-10-16T17:14:54.777Z,7.75
2022-10-16T17:17:23.143Z,8.75
2022-10-16T17:19:54.683Z,8.75
2022-10-16T17:22:23.209Z,7.50
2022-10-16T17:24:53.072Z,11.00
2022-10-16T17:27:21.835Z,6.75
2022-10-16T17:29:53.443Z,8.00
2022-10-16T17:32:22.781Z,7.50
2022-10-16T17:34:51.136Z,7.00
2022-10-16T17:37:19.739Z,9.00
2022-10-16T17:39:48.174Z,8.50
2022-10-16T17:42:16.518Z,12.00
2022-10-16T17:44:44.871Z,10.25
2022-10-16T17:47:13.274Z,9.00
2022-10-16T17:49:41.733Z,8.50
2022-10-16T17:52:10.093Z,8.50
2022-10-16T17:54:38.448Z,7.50
2022-10-16T17:57:06.781Z,9.00
2022-10-16T17:59:35.156Z,9.50
2022-10-16T18:02:03.666Z,8.75
2022-10-16T18:04:32.124Z,7.75
2022-10-16T18:07:01.517Z,6.75
2022-10-16T18:09:30.243Z,6.00
2022-10-16T18:12:01.492Z,9.75
2022-10-16T18:14:32.109Z,8.00
2022-10-16T18:17:00.560Z,8.25
2022-10-16T18:19:29.555Z,7.50
2022-10-16T18:21:57.938Z,6.25
2022-10-16T18:24:27.290Z,7.50
2022-10-16T18:26:59.903Z,7.25
2022-10-16T18:29:28.709Z,8.00
2022-10-16T18:31:58.122Z,8.75
2022-10-16T18:34:28.103Z,7.75
2022-10-16T18:36:56.847Z,7.50
2022-10-16T18:39:25.652Z,6.00
2022-10-16T18:42:00.431Z,6.00
2022-10-16T18:44:29.463Z,7.75
2022-10-16T18:47:00.000Z,7.50
2022-10-16T18:49:29.152Z,8.75
2022-10-16T18:51:57.937Z,9.50
2022-10-16T18:54:26.645Z,8.00
2022-10-16T18:56:55.257Z,7.00
2022-10-16T18:59:24.114Z,9.50
2022-10-16T19:01:53.353Z,9.00
2022-10-16T19:04:23.845Z,9.00
2022-10-16T19:06:54.936Z,8.25
2022-10-16T19:09:25.460Z,8.75
2022-10-16T19:11:53.998Z,12.50
2022-10-16T19:14:22.469Z,11.00
2022-10-16T19:16:50.890Z,9.75
2022-10-16T19:19:19.675Z,9.50
2022-10-16T19:21:49.188Z,9.50
2022-10-16T19:24:18.184Z,9.50
2022-10-16T19:26:46.647Z,8.25
2022-10-16T19:29:15.454Z,8.00
2022-10-16T19:31:43.898Z,6.50
2022-10-16T19:34:12.919Z,6.75
2022-10-16T19:36:42.290Z,8.50
2022-10-16T19:39:15.776Z,6.75
2022-10-16T19:41:45.135Z,7.00
2022-10-16T19:44:16.091Z,8.00
2022-10-16T19:46:45.266Z,6.00
2022-10-16T19:49:18.894Z,6.50
2022-10-16T19:51:52.647Z,6.00
2022-10-16T19:54:21.241Z,8.50
2022-10-16T19:56:49.644Z,8.00
2022-10-16T19:59:21.054Z,7.00
2022-10-16T20:01:49.787Z,7.00
2022-10-16T20:04:18.584Z,6.25
2022-10-16T20:06:47.264Z,7.00
2022-10-16T20:09:15.979Z,7.75
2022-10-16T20:11:44.403Z,6.00
2022-10-16T20:14:12.800Z,7.25
2022-10-16T20:16:41.504Z,7.00
2022-10-16T20:19:10.074Z,6.75
2022-10-16T20:21:39.929Z,7.00
2022-10-16T20:24:09.117Z,6.00
2022-10-16T20:26:38.616Z,8.00
2022-10-16T20:29:07.927Z,8.00
2022-10-16T20:31:36.343Z,8.00
2022-10-16T20:34:07.947Z,5.75
2022-10-16T20:36:38.023Z,7.00
2022-10-16T20:39:08.263Z,5.75
2022-10-16T20:41:37.737Z,6.75
2022-10-16T20:44:06.498Z,6.75
2022-10-16T20:46:34.852Z,8.75
2022-10-16T20:49:11.327Z,7.25
2022-10-16T20:51:50.914Z,7.00
2022-10-16T20:54:19.396Z,8.00
2022-10-16T20:56:47.809Z,6.50
2022-10-16T20:59:16.174Z,6.50
2022-10-16T21:01:44.601Z,5.00
2022-10-16T21:04:13.061Z,5.00
2022-10-16T21:06:41.885Z,8.00
2022-10-16T21:09:11.019Z,6.00
2022-10-16T21:11:40.119Z,6.50
2022-10-16T21:14:10.041Z,6.00
2022-10-16T21:16:39.104Z,5.50
2022-10-16T21:19:07.537Z,6.50
2022-10-16T21:21:39.217Z,5.75
2022-10-16T21:24:12.181Z,5.75
2022-10-16T21:26:43.733Z,5.75
2022-10-16T21:29:12.193Z,5.75
2022-10-16T21:31:41.020Z,6.75
2022-10-16T21:34:09.581Z,5.50
2022-10-16T21:36:40.193Z,6.00
2022-10-16T21:39:13.811Z,5.50
2022-10-16T21:41:45.556Z,5.00
2022-10-16T21:44:14.651Z,7.25
2022-10-16T21:46:44.795Z,8.00
2022-10-16T21:49:17.045Z,6.00
2022-10-16T21:51:48.349Z,6.50
2022-10-16T21:54:19.931Z,7.00
2022-10-16T21:56:48.484Z,6.00
2022-10-16T21:59:17.108Z,6.75
2022-10-16T22:01:45.656Z,5.25
2022-10-16T22:04:15.835Z,7.00
2022-10-16T22:06:44.815Z,6.00
2022-10-16T22:09:15.463Z,7.25
2022-10-16T22:11:46.255Z,7.00
2022-10-16T22:14:19.409Z,6.00
2022-10-16T22:16:48.841Z,7.25
2022-10-16T22:19:20.863Z,5.75
2022-10-16T22:21:52.664Z,7.25
2022-10-16T22:24:21.134Z,7.50
2022-10-16T22:26:50.134Z,7.25
2022-10-16T22:29:18.735Z,6.00
2022-10-16T22:31:47.509Z,6.00
2022-10-16T22:34:16.044Z,5.00
2022-10-16T22:36:44.677Z,6.00
2022-10-16T22:39:13.333Z,7.25
2022-10-16T22:41:41.745Z,6.25
2022-10-16T22:44:13.299Z,6.50
2022-10-16T22:46:41.696Z,6.25
2022-10-16T22:49:10.004Z,7.00
2022-10-16T22:51:38.445Z,7.00
2022-10-16T22:54:06.905Z,7.50
2022-10-16T22:56:35.309Z,7.00
2022-10-16T22:59:03.742Z,5.25
2022-10-16T23:01:35.865Z,6.00
2022-10-16T23:04:04.428Z,6.75
2022-10-16T23:06:33.232Z,6.00
2022-10-16T23:09:03.494Z,7.00
2022-10-16T23:11:32.258Z,6.50
2022-10-16T23:14:00.625Z,7.00
2022-10-16T23:16:29.015Z,7.75
2022-10-16T23:18:57.495Z,7.00
2022-10-16T23:21:26.898Z,6.50
2022-10-16T23:23:55.851Z,7.00
2022-10-16T23:26:27.521Z,8.00
2022-10-16T23:29:00.022Z,8.50
2022-10-16T23:31:29.443Z,8.75
2022-10-16T23:33:59.226Z,9.00
2022-10-16T23:36:28.239Z,7.00
2022-10-16T23:38:56.972Z,7.00
2022-10-16T23:41:25.409Z,8.00
2022-10-16T23:43:53.893Z,7.25
2022-10-16T23:46:22.308Z,6.50
2022-10-16T23:48:50.703Z,8.00
2022-10-16T23:51:19.153Z,7.50
2022-10-16T23:53:47.487Z,7.00
2022-10-16T23:56:15.973Z,8.00
2022-10-16T23:58:44.424Z,8.00
